sensor_id;sensor_type;location;lat;lon;timestamp;temperature;humidity
18297;DHT22;18066;52.106;5.534;2023-04-01T00:00:49;10.70;99.90
18297;DHT22;18066;52.106;5.534;2023-04-01T00:03:17;10.70;99.90
18297;DHT22;18066;52.106;5.534;2023-04-01T00:05:45;10.70;99.90
18297;DHT22;18066;52.106;5.534;2023-04-01T00:08:12;10.70;99.90
18297;DHT22;18066;52.106;5.534;2023-04-01T00:10:40;10.80;99.90
18297;DHT22;18066;52.106;5.534;2023-04-01T00:13:07;10.70;99.90
18297;DHT22;18066;52.106;5.534;2023-04-01T00:15:35;10.70;99.90
18297;DHT22;18066;52.106;5.534;2023-04-01T00:18:02;10.80;99.90
18297;DHT22;18066;52.106;5.534;2023-04-01T00:20:30;10.80;99.90
18297;DHT22;18066;52.106;5.534;2023-04-01T00:22:57;10.70;99.90
18297;DHT22;18066;52.106;5.534;2023-04-01T00:25:24;10.80;99.90
18297;DHT22;18066;52.106;5.534;2023-04-01T00:27:52;10.80;99.90
18297;DHT22;18066;52.106;5.534;2023-04-01T00:30:19;10.90;99.90
18297;DHT22;18066;52.106;5.534;2023-04-01T00:32:46;10.80;99.90
18297;DHT22;18066;52.106;5.534;2023-04-01T00:35:13;10.80;99.90
18297;DHT22;18066;52.106;5.534;2023-04-01T00:37:40;10.80;99.90
18297;DHT22;18066;52.106;5.534;2023-04-01T00:40:08;10.80;99.90
18297;DHT22;18066;52.106;5.534;2023-04-01T00:42:37;10.80;99.90
18297;DHT22;18066;52.106;5.534;2023-04-01T00:45:25;10.80;99.90
18297;DHT22;18066;52.106;5.534;2023-04-01T00:47:53;10.70;99.90
18297;DHT22;18066;52.106;5.534;2023-04-01T00:50:20;10.80;99.90
18297;DHT22;18066;52.106;5.534;2023-04-01T00:52:48;10.70;99.90
18297;DHT22;18066;52.106;5.534;2023-04-01T00:55:16;10.70;99.90
18297;DHT22;18066;52.106;5.534;2023-04-01T00:57:46;10.70;99.90
18297;DHT22;18066;52.106;5.534;2023-04-01T01:00:15;10.60;99.90
18297;DHT22;18066;52.106;5.534;2023-04-01T01:02:45;10.60;99.90
18297;DHT22;18066;52.106;5.534;2023-04-01T01:05:13;10.60;99.90
18297;DHT22;18066;52.106;5.534;2023-04-01T01:07:46;10.50;99.90
18297;DHT22;18066;52.106;5.534;2023-04-01T01:10:22;10.50;99.90
18297;DHT22;18066;52.106;5.534;2023-04-01T01:12:57;10.50;99.90
18297;DHT22;18066;52.106;5.534;2023-04-01T01:15:32;10.50;99.90
18297;DHT22;18066;52.106;5.534;2023-04-01T01:18:07;10.40;99.90
18297;DHT22;18066;52.106;5.534;2023-04-01T01:20:57;10.40;99.90
18297;DHT22;18066;52.106;5.534;2023-04-01T01:23:57;10.40;99.90
18297;DHT22;18066;52.106;5.534;2023-04-01T01:26:42;10.40;99.90
18297;DHT22;18066;52.106;5.534;2023-04-01T01:29:22;10.40;99.90
18297;DHT22;18066;52.106;5.534;2023-04-01T01:31:59;10.30;99.90
18297;DHT22;18066;52.106;5.534;2023-04-01T01:34:33;10.40;99.90
18297;DHT22;18066;52.106;5.534;2023-04-01T01:37:08;10.50;99.90
18297;DHT22;18066;52.106;5.534;2023-04-01T01:39:37;10.40;99.90
18297;DHT22;18066;52.106;5.534;2023-04-01T01:42:07;10.40;99.90
18297;DHT22;18066;52.106;5.534;2023-04-01T01:44:37;10.30;99.90
18297;DHT22;18066;52.106;5.534;2023-04-01T01:47:05;10.30;99.90
18297;DHT22;18066;52.106;5.534;2023-04-01T01:49:33;10.40;99.90
18297;DHT22;18066;52.106;5.534;2023-04-01T01:52:02;10.30;99.90
18297;DHT22;18066;52.106;5.534;2023-04-01T01:54:30;10.30;99.90
18297;DHT22;18066;52.106;5.534;2023-04-01T01:57:03;10.40;99.90
18297;DHT22;18066;52.106;5.534;2023-04-01T01:59:33;10.30;99.90
18297;DHT22;18066;52.106;5.534;2023-04-01T02:02:02;10.20;99.90
18297;DHT22;18066;52.106;5.534;2023-04-01T02:04:34;10.20;99.90
18297;DHT22;18066;52.106;5.534;2023-04-01T02:07:02;10.20;99.90
18297;DHT22;18066;52.106;5.534;2023-04-01T02:09:32;10.20;99.90
18297;DHT22;18066;52.106;5.534;2023-04-01T02:12:02;10.20;99.90
18297;DHT22;18066;52.106;5.534;2023-04-01T02:14:38;10.20;99.90
18297;DHT22;18066;52.106;5.534;2023-04-01T02:17:08;10.20;99.90
18297;DHT22;18066;52.106;5.534;2023-04-01T02:19:38;10.30;99.90
18297;DHT22;18066;52.106;5.534;2023-04-01T02:22:10;10.20;99.90
18297;DHT22;18066;52.106;5.534;2023-04-01T02:24:40;10.30;99.90
18297;DHT22;18066;52.106;5.534;2023-04-01T02:27:09;10.20;99.90
18297;DHT22;18066;52.106;5.534;2023-04-01T02:29:36;10.20;99.90
18297;DHT22;18066;52.106;5.534;2023-04-01T02:32:04;10.10;99.90
18297;DHT22;18066;52.106;5.534;2023-04-01T02:34:33;10.20;99.90
18297;DHT22;18066;52.106;5.534;2023-04-01T02:37:00;10.20;99.90
18297;DHT22;18066;52.106;5.534;2023-04-01T02:39:27;10.20;99.90
18297;DHT22;18066;52.106;5.534;2023-04-01T02:41:56;10.20;99.90
18297;DHT22;18066;52.106;5.534;2023-04-01T02:44:23;10.00;99.90
18297;DHT22;18066;52.106;5.534;2023-04-01T02:46:49;10.10;99.90
18297;DHT22;18066;52.106;5.534;2023-04-01T02:49:16;10.10;99.90
18297;DHT22;18066;52.106;5.534;2023-04-01T02:51:43;9.90;99.90
18297;DHT22;18066;52.106;5.534;2023-04-01T02:54:10;9.90;99.90
18297;DHT22;18066;52.106;5.534;2023-04-01T02:56:37;9.90;99.90
18297;DHT22;18066;52.106;5.534;2023-04-01T02:59:05;9.90;99.90
18297;DHT22;18066;52.106;5.534;2023-04-01T03:01:32;9.90;99.90
18297;DHT22;18066;52.106;5.534;2023-04-01T03:03:59;9.80;99.90
18297;DHT22;18066;52.106;5.534;2023-04-01T03:06:26;9.90;99.90
18297;DHT22;18066;52.106;5.534;2023-04-01T03:08:53;9.90;99.90
18297;DHT22;18066;52.106;5.534;2023-04-01T03:11:19;9.80;99.90
18297;DHT22;18066;52.106;5.534;2023-04-01T03:13:47;9.80;99.90
18297;DHT22;18066;52.106;5.534;2023-04-01T03:16:16;9.80;99.90
18297;DHT22;18066;52.106;5.534;2023-04-01T03:18:42;9.80;99.90
18297;DHT22;18066;52.106;5.534;2023-04-01T03:21:18;9.80;99.90
18297;DHT22;18066;52.106;5.534;2023-04-01T03:23:45;9.80;99.90
18297;DHT22;18066;52.106;5.534;2023-04-01T03:26:12;9.80;99.90
18297;DHT22;18066;52.106;5.534;2023-04-01T03:28:39;9.90;99.90
18297;DHT22;18066;52.106;5.534;2023-04-01T03:31:06;9.80;99.90
18297;DHT22;18066;52.106;5.534;2023-04-01T03:33:35;9.80;99.90
18297;DHT22;18066;52.106;5.534;2023-04-01T03:36:02;9.80;99.90
18297;DHT22;18066;52.106;5.534;2023-04-01T03:38:31;9.90;99.90
18297;DHT22;18066;52.106;5.534;2023-04-01T03:40:59;9.80;99.90
18297;DHT22;18066;52.106;5.534;2023-04-01T03:43:25;9.80;99.90
18297;DHT22;18066;52.106;5.534;2023-04-01T03:45:53;9.80;99.90
18297;DHT22;18066;52.106;5.534;2023-04-01T03:48:22;9.80;99.90
18297;DHT22;18066;52.106;5.534;2023-04-01T03:50:50;9.80;99.90
18297;DHT22;18066;52.106;5.534;2023-04-01T03:53:17;9.80;99.90
18297;DHT22;18066;52.106;5.534;2023-04-01T03:55:44;9.80;99.90
18297;DHT22;18066;52.106;5.534;2023-04-01T03:58:10;9.80;99.90
18297;DHT22;18066;52.106;5.534;2023-04-01T04:00:37;9.80;99.90
18297;DHT22;18066;52.106;5.534;2023-04-01T04:03:05;9.80;99.90
18297;DHT22;18066;52.106;5.534;2023-04-01T04:05:32;9.90;99.90
18297;DHT22;18066;52.106;5.534;2023-04-01T04:08:01;10.00;99.90
18297;DHT22;18066;52.106;5.534;2023-04-01T04:10:28;10.00;99.90
18297;DHT22;18066;52.106;5.534;2023-04-01T04:12:54;9.90;99.90
18297;DHT22;18066;52.106;5.534;2023-04-01T04:15:22;9.90;99.90
18297;DHT22;18066;52.106;5.534;2023-04-01T04:17:49;9.90;99.90
18297;DHT22;18066;52.106;5.534;2023-04-01T04:20:16;10.00;99.90
18297;DHT22;18066;52.106;5.534;2023-04-01T04:22:43;10.00;99.90
18297;DHT22;18066;52.106;5.534;2023-04-01T04:25:11;10.00;99.90
18297;DHT22;18066;52.106;5.534;2023-04-01T04:27:38;10.10;99.90
18297;DHT22;18066;52.106;5.534;2023-04-01T04:30:07;10.10;99.90
18297;DHT22;18066;52.106;5.534;2023-04-01T04:32:34;10.20;99.90
18297;DHT22;18066;52.106;5.534;2023-04-01T04:35:01;10.20;99.90
18297;DHT22;18066;52.106;5.534;2023-04-01T04:37:28;10.30;99.90
18297;DHT22;18066;52.106;5.534;2023-04-01T04:39:55;10.30;99.90
18297;DHT22;18066;52.106;5.534;2023-04-01T04:42:23;10.30;99.90
18297;DHT22;18066;52.106;5.534;2023-04-01T04:44:50;10.40;99.90
18297;DHT22;18066;52.106;5.534;2023-04-01T04:47:17;10.30;99.90
18297;DHT22;18066;52.106;5.534;2023-04-01T04:49:44;10.40;99.90
18297;DHT22;18066;52.106;5.534;2023-04-01T04:52:11;10.40;99.90
18297;DHT22;18066;52.106;5.534;2023-04-01T04:54:37;10.50;99.90
18297;DHT22;18066;52.106;5.534;2023-04-01T04:57:05;10.50;99.90
18297;DHT22;18066;52.106;5.534;2023-04-01T04:59:33;10.50;99.90
18297;DHT22;18066;52.106;5.534;2023-04-01T05:02:00;10.60;99.90
18297;DHT22;18066;52.106;5.534;2023-04-01T05:04:27;10.60;99.90
18297;DHT22;18066;52.106;5.534;2023-04-01T05:06:54;10.60;99.90
18297;DHT22;18066;52.106;5.534;2023-04-01T05:09:20;10.50;99.90
18297;DHT22;18066;52.106;5.534;2023-04-01T05:11:47;10.50;99.90
18297;DHT22;18066;52.106;5.534;2023-04-01T05:14:15;10.40;99.90
18297;DHT22;18066;52.106;5.534;2023-04-01T05:16:43;10.50;99.90
18297;DHT22;18066;52.106;5.534;2023-04-01T05:19:10;10.60;99.90
18297;DHT22;18066;52.106;5.534;2023-04-01T05:21:36;10.50;99.90
18297;DHT22;18066;52.106;5.534;2023-04-01T05:24:07;10.50;99.90
18297;DHT22;18066;52.106;5.534;2023-04-01T05:26:34;10.60;99.90
18297;DHT22;18066;52.106;5.534;2023-04-01T05:29:02;10.60;99.90
18297;DHT22;18066;52.106;5.534;2023-04-01T05:31:29;10.60;99.90
18297;DHT22;18066;52.106;5.534;2023-04-01T05:33:57;10.60;99.90
18297;DHT22;18066;52.106;5.534;2023-04-01T05:36:24;10.50;99.90
18297;DHT22;18066;52.106;5.534;2023-04-01T05:38:50;10.50;99.90
18297;DHT22;18066;52.106;5.534;2023-04-01T05:41:20;10.50;99.90
18297;DHT22;18066;52.106;5.534;2023-04-01T05:43:47;10.50;99.90
18297;DHT22;18066;52.106;5.534;2023-04-01T05:46:14;10.50;99.90
18297;DHT22;18066;52.106;5.534;2023-04-01T05:48:41;10.50;99.90
18297;DHT22;18066;52.106;5.534;2023-04-01T05:51:13;10.60;99.90
18297;DHT22;18066;52.106;5.534;2023-04-01T05:53:40;10.60;99.90
18297;DHT22;18066;52.106;5.534;2023-04-01T05:56:07;10.60;99.90
18297;DHT22;18066;52.106;5.534;2023-04-01T05:58:35;10.60;99.90
18297;DHT22;18066;52.106;5.534;2023-04-01T06:01:02;10.60;99.90
18297;DHT22;18066;52.106;5.534;2023-04-01T06:03:29;10.60;99.90
18297;DHT22;18066;52.106;5.534;2023-04-01T06:05:56;10.70;99.90
18297;DHT22;18066;52.106;5.534;2023-04-01T06:08:25;10.60;99.90
18297;DHT22;18066;52.106;5.534;2023-04-01T06:11:04;10.60;99.90
18297;DHT22;18066;52.106;5.534;2023-04-01T06:13:48;10.60;99.90
18297;DHT22;18066;52.106;5.534;2023-04-01T06:16:24;10.60;99.90
18297;DHT22;18066;52.106;5.534;2023-04-01T06:19:13;10.60;99.90
18297;DHT22;18066;52.106;5.534;2023-04-01T06:22:00;10.60;99.90
18297;DHT22;18066;52.106;5.534;2023-04-01T06:24:51;10.60;99.90
18297;DHT22;18066;52.106;5.534;2023-04-01T06:27:30;10.70;99.90
18297;DHT22;18066;52.106;5.534;2023-04-01T06:30:06;10.70;99.90
18297;DHT22;18066;52.106;5.534;2023-04-01T06:32:55;10.70;99.90
18297;DHT22;18066;52.106;5.534;2023-04-01T06:35:36;10.70;99.90
18297;DHT22;18066;52.106;5.534;2023-04-01T06:38:28;10.70;99.90
18297;DHT22;18066;52.106;5.534;2023-04-01T06:44:07;10.70;99.90
18297;DHT22;18066;52.106;5.534;2023-04-01T06:46:44;10.70;99.90
18297;DHT22;18066;52.106;5.534;2023-04-01T06:49:24;10.80;99.90
18297;DHT22;18066;52.106;5.534;2023-04-01T06:51:59;10.80;99.90
18297;DHT22;18066;52.106;5.534;2023-04-01T06:54:31;10.80;99.90
18297;DHT22;18066;52.106;5.534;2023-04-01T06:57:05;11.00;99.90
18297;DHT22;18066;52.106;5.534;2023-04-01T06:59:37;10.90;99.90
18297;DHT22;18066;52.106;5.534;2023-04-01T07:02:11;10.90;99.90
18297;DHT22;18066;52.106;5.534;2023-04-01T07:04:46;11.00;99.90
18297;DHT22;18066;52.106;5.534;2023-04-01T07:07:17;10.90;99.90
18297;DHT22;18066;52.106;5.534;2023-04-01T07:09:50;10.90;99.90
18297;DHT22;18066;52.106;5.534;2023-04-01T07:12:26;10.90;99.90
18297;DHT22;18066;52.106;5.534;2023-04-01T07:14:56;10.80;99.90
18297;DHT22;18066;52.106;5.534;2023-04-01T07:17:28;10.90;99.90
18297;DHT22;18066;52.106;5.534;2023-04-01T07:19:59;10.90;99.90
18297;DHT22;18066;52.106;5.534;2023-04-01T07:22:31;10.80;99.90
18297;DHT22;18066;52.106;5.534;2023-04-01T07:25:03;11.00;99.90
18297;DHT22;18066;52.106;5.534;2023-04-01T07:27:33;10.90;99.90
18297;DHT22;18066;52.106;5.534;2023-04-01T07:30:01;11.00;99.90
18297;DHT22;18066;52.106;5.534;2023-04-01T07:32:34;10.90;99.90
18297;DHT22;18066;52.106;5.534;2023-04-01T07:35:17;10.80;99.90
18297;DHT22;18066;52.106;5.534;2023-04-01T07:37:58;10.70;99.90
18297;DHT22;18066;52.106;5.534;2023-04-01T07:40:35;10.80;99.90
18297;DHT22;18066;52.106;5.534;2023-04-01T07:43:20;10.90;99.90
18297;DHT22;18066;52.106;5.534;2023-04-01T07:45:54;10.90;99.90
18297;DHT22;18066;52.106;5.534;2023-04-01T07:48:28;11.00;99.90
18297;DHT22;18066;52.106;5.534;2023-04-01T07:51:02;11.00;99.90
18297;DHT22;18066;52.106;5.534;2023-04-01T07:53:35;11.00;99.90
18297;DHT22;18066;52.106;5.534;2023-04-01T07:56:06;11.10;99.90
18297;DHT22;18066;52.106;5.534;2023-04-01T07:58:44;11.00;99.90
18297;DHT22;18066;52.106;5.534;2023-04-01T08:01:18;11.10;99.90
18297;DHT22;18066;52.106;5.534;2023-04-01T08:04:14;11.10;99.90
18297;DHT22;18066;52.106;5.534;2023-04-01T08:06:49;11.10;99.90
18297;DHT22;18066;52.106;5.534;2023-04-01T08:09:23;11.20;99.90
18297;DHT22;18066;52.106;5.534;2023-04-01T08:12:08;11.30;99.90
18297;DHT22;18066;52.106;5.534;2023-04-01T08:14:47;11.20;99.90
18297;DHT22;18066;52.106;5.534;2023-04-01T08:17:20;11.10;99.90
18297;DHT22;18066;52.106;5.534;2023-04-01T08:20:00;11.20;99.90
18297;DHT22;18066;52.106;5.534;2023-04-01T08:22:35;11.20;99.90
18297;DHT22;18066;52.106;5.534;2023-04-01T08:25:08;11.30;99.90
18297;DHT22;18066;52.106;5.534;2023-04-01T08:27:40;11.30;99.90
18297;DHT22;18066;52.106;5.534;2023-04-01T08:30:18;11.30;99.90
18297;DHT22;18066;52.106;5.534;2023-04-01T08:32:48;11.20;99.90
18297;DHT22;18066;52.106;5.534;2023-04-01T08:35:24;11.20;99.90
18297;DHT22;18066;52.106;5.534;2023-04-01T08:37:53;11.20;99.90
18297;DHT22;18066;52.106;5.534;2023-04-01T08:40:51;11.20;99.90
18297;DHT22;18066;52.106;5.534;2023-04-01T08:43:30;11.20;99.90
18297;DHT22;18066;52.106;5.534;2023-04-01T08:46:17;11.30;99.90
18297;DHT22;18066;52.106;5.534;2023-04-01T08:48:54;11.30;99.90
18297;DHT22;18066;52.106;5.534;2023-04-01T08:51:48;11.30;99.90
18297;DHT22;18066;52.106;5.534;2023-04-01T08:54:43;11.40;99.90
18297;DHT22;18066;52.106;5.534;2023-04-01T08:57:17;11.50;99.90
18297;DHT22;18066;52.106;5.534;2023-04-01T08:59:57;11.50;99.90
18297;DHT22;18066;52.106;5.534;2023-04-01T09:03:05;11.50;99.90
18297;DHT22;18066;52.106;5.534;2023-04-01T09:05:55;11.60;99.90
18297;DHT22;18066;52.106;5.534;2023-04-01T09:08:37;11.60;99.90
18297;DHT22;18066;52.106;5.534;2023-04-01T09:11:17;11.60;99.90
18297;DHT22;18066;52.106;5.534;2023-04-01T09:14:19;11.60;99.90
18297;DHT22;18066;52.106;5.534;2023-04-01T09:20:19;11.60;99.90
18297;DHT22;18066;52.106;5.534;2023-04-01T09:23:10;11.50;99.90
18297;DHT22;18066;52.106;5.534;2023-04-01T09:25:53;11.50;99.90
18297;DHT22;18066;52.106;5.534;2023-04-01T09:28:28;11.60;99.90
18297;DHT22;18066;52.106;5.534;2023-04-01T09:31:32;11.70;99.90
18297;DHT22;18066;52.106;5.534;2023-04-01T09:34:24;11.80;99.90
18297;DHT22;18066;52.106;5.534;2023-04-01T09:37:03;11.90;99.90
18297;DHT22;18066;52.106;5.534;2023-04-01T09:39:37;12.00;99.90
18297;DHT22;18066;52.106;5.534;2023-04-01T09:42:15;12.20;99.90
18297;DHT22;18066;52.106;5.534;2023-04-01T09:44:54;12.20;99.90
18297;DHT22;18066;52.106;5.534;2023-04-01T09:47:39;12.30;99.90
18297;DHT22;18066;52.106;5.534;2023-04-01T09:50:26;12.40;99.90
18297;DHT22;18066;52.106;5.534;2023-04-01T09:53:01;12.50;99.90
18297;DHT22;18066;52.106;5.534;2023-04-01T09:56:08;12.70;99.90
18297;DHT22;18066;52.106;5.534;2023-04-01T09:59:11;12.70;99.90
18297;DHT22;18066;52.106;5.534;2023-04-01T10:05:22;13.10;99.90
18297;DHT22;18066;52.106;5.534;2023-04-01T10:08:20;13.00;99.90
18297;DHT22;18066;52.106;5.534;2023-04-01T10:14:22;13.00;99.90
18297;DHT22;18066;52.106;5.534;2023-04-01T10:17:07;13.00;99.90
18297;DHT22;18066;52.106;5.534;2023-04-01T10:20:12;13.00;99.90
18297;DHT22;18066;52.106;5.534;2023-04-01T10:23:18;13.10;99.90
18297;DHT22;18066;52.106;5.534;2023-04-01T10:26:18;13.30;99.90
18297;DHT22;18066;52.106;5.534;2023-04-01T10:29:13;13.30;99.90
18297;DHT22;18066;52.106;5.534;2023-04-01T10:38:00;13.20;99.90
18297;DHT22;18066;52.106;5.534;2023-04-01T10:40:38;13.40;99.90
18297;DHT22;18066;52.106;5.534;2023-04-01T10:43:27;13.40;99.90
18297;DHT22;18066;52.106;5.534;2023-04-01T10:46:28;13.10;99.90
18297;DHT22;18066;52.106;5.534;2023-04-01T10:52:29;13.10;99.90
18297;DHT22;18066;52.106;5.534;2023-04-01T10:55:14;13.20;99.90
18297;DHT22;18066;52.106;5.534;2023-04-01T11:04:31;13.00;99.90
18297;DHT22;18066;52.106;5.534;2023-04-01T11:07:33;13.00;99.90
18297;DHT22;18066;52.106;5.534;2023-04-01T11:10:30;13.00;99.90
18297;DHT22;18066;52.106;5.534;2023-04-01T11:13:39;13.10;99.90
18297;DHT22;18066;52.106;5.534;2023-04-01T11:16:44;13.00;99.90
18297;DHT22;18066;52.106;5.534;2023-04-01T11:22:32;12.90;99.90
18297;DHT22;18066;52.106;5.534;2023-04-01T11:33:39;12.70;99.90
18297;DHT22;18066;52.106;5.534;2023-04-01T11:36:14;12.70;99.90
18297;DHT22;18066;52.106;5.534;2023-04-01T11:39:01;12.70;99.90
18297;DHT22;18066;52.106;5.534;2023-04-01T11:41:35;12.80;99.90
18297;DHT22;18066;52.106;5.534;2023-04-01T11:44:15;12.80;99.90
18297;DHT22;18066;52.106;5.534;2023-04-01T11:46:56;12.90;99.90
18297;DHT22;18066;52.106;5.534;2023-04-01T11:49:36;12.90;99.90
18297;DHT22;18066;52.106;5.534;2023-04-01T11:52:25;12.90;99.90
18297;DHT22;18066;52.106;5.534;2023-04-01T11:55:12;12.80;99.90
18297;DHT22;18066;52.106;5.534;2023-04-01T11:57:55;12.90;99.90
18297;DHT22;18066;52.106;5.534;2023-04-01T12:00:37;12.90;99.90
18297;DHT22;18066;52.106;5.534;2023-04-01T12:03:27;12.90;99.90
18297;DHT22;18066;52.106;5.534;2023-04-01T12:06:05;12.90;99.90
18297;DHT22;18066;52.106;5.534;2023-04-01T12:08:41;12.90;99.90
18297;DHT22;18066;52.106;5.534;2023-04-01T12:11:16;12.80;99.90
18297;DHT22;18066;52.106;5.534;2023-04-01T12:13:49;12.90;99.90
18297;DHT22;18066;52.106;5.534;2023-04-01T12:16:39;13.00;99.90
18297;DHT22;18066;52.106;5.534;2023-04-01T12:19:15;13.00;99.90
18297;DHT22;18066;52.106;5.534;2023-04-01T12:21:55;13.30;99.90
18297;DHT22;18066;52.106;5.534;2023-04-01T12:24:45;13.40;99.90
18297;DHT22;18066;52.106;5.534;2023-04-01T12:27:41;13.50;99.90
18297;DHT22;18066;52.106;5.534;2023-04-01T12:30:30;13.80;99.90
18297;DHT22;18066;52.106;5.534;2023-04-01T12:33:24;13.80;99.90
18297;DHT22;18066;52.106;5.534;2023-04-01T12:36:00;14.00;99.90
18297;DHT22;18066;52.106;5.534;2023-04-01T12:38:44;14.20;99.90
18297;DHT22;18066;52.106;5.534;2023-04-01T12:41:24;14.40;99.90
18297;DHT22;18066;52.106;5.534;2023-04-01T12:47:07;14.70;99.90
18297;DHT22;18066;52.106;5.534;2023-04-01T12:49:55;14.50;99.90
18297;DHT22;18066;52.106;5.534;2023-04-01T12:52:35;14.60;99.90
18297;DHT22;18066;52.106;5.534;2023-04-01T12:55:35;14.50;99.90
18297;DHT22;18066;52.106;5.534;2023-04-01T13:01:22;13.80;99.90
18297;DHT22;18066;52.106;5.534;2023-04-01T13:04:25;13.70;99.90
18297;DHT22;18066;52.106;5.534;2023-04-01T13:07:13;13.70;99.90
18297;DHT22;18066;52.106;5.534;2023-04-01T13:09:49;13.60;99.90
18297;DHT22;18066;52.106;5.534;2023-04-01T13:12:40;13.70;99.90
18297;DHT22;18066;52.106;5.534;2023-04-01T13:15:32;13.60;99.90
18297;DHT22;18066;52.106;5.534;2023-04-01T13:18:13;13.60;99.90
18297;DHT22;18066;52.106;5.534;2023-04-01T13:20:47;13.40;99.90
18297;DHT22;18066;52.106;5.534;2023-04-01T13:23:28;13.40;99.90
18297;DHT22;18066;52.106;5.534;2023-04-01T13:26:06;13.30;99.90
18297;DHT22;18066;52.106;5.534;2023-04-01T13:28:39;13.40;99.90
18297;DHT22;18066;52.106;5.534;2023-04-01T13:31:13;13.20;99.90
18297;DHT22;18066;52.106;5.534;2023-04-01T13:33:50;13.20;99.90
18297;DHT22;18066;52.106;5.534;2023-04-01T13:36:28;13.10;99.90
18297;DHT22;18066;52.106;5.534;2023-04-01T13:39:18;13.10;99.90
18297;DHT22;18066;52.106;5.534;2023-04-01T13:42:09;12.90;99.90
18297;DHT22;18066;52.106;5.534;2023-04-01T13:44:42;12.90;99.90
18297;DHT22;18066;52.106;5.534;2023-04-01T13:47:37;12.90;99.90
18297;DHT22;18066;52.106;5.534;2023-04-01T13:50:37;12.90;99.90
18297;DHT22;18066;52.106;5.534;2023-04-01T13:56:28;12.80;99.90
18297;DHT22;18066;52.106;5.534;2023-04-01T13:59:17;12.60;99.90
18297;DHT22;18066;52.106;5.534;2023-04-01T14:01:54;12.50;99.90
18297;DHT22;18066;52.106;5.534;2023-04-01T14:04:39;12.30;99.90
18297;DHT22;18066;52.106;5.534;2023-04-01T14:07:31;12.30;99.90
18297;DHT22;18066;52.106;5.534;2023-04-01T14:10:05;12.10;99.90
18297;DHT22;18066;52.106;5.534;2023-04-01T14:12:40;12.20;99.90
18297;DHT22;18066;52.106;5.534;2023-04-01T14:15:23;12.30;99.90
18297;DHT22;18066;52.106;5.534;2023-04-01T14:18:03;12.30;99.90
18297;DHT22;18066;52.106;5.534;2023-04-01T14:20:40;12.40;99.90
18297;DHT22;18066;52.106;5.534;2023-04-01T14:26:26;12.20;99.90
18297;DHT22;18066;52.106;5.534;2023-04-01T14:29:07;12.10;99.90
18297;DHT22;18066;52.106;5.534;2023-04-01T14:31:48;11.90;99.90
18297;DHT22;18066;52.106;5.534;2023-04-01T14:34:26;11.90;99.90
18297;DHT22;18066;52.106;5.534;2023-04-01T14:37:06;11.90;99.90
18297;DHT22;18066;52.106;5.534;2023-04-01T14:39:57;11.80;99.90
18297;DHT22;18066;52.106;5.534;2023-04-01T14:42:55;11.80;99.90
18297;DHT22;18066;52.106;5.534;2023-04-01T14:45:46;11.80;99.90
18297;DHT22;18066;52.106;5.534;2023-04-01T14:48:23;11.80;99.90
18297;DHT22;18066;52.106;5.534;2023-04-01T14:50:55;11.80;99.90
18297;DHT22;18066;52.106;5.534;2023-04-01T14:53:27;11.80;99.90
18297;DHT22;18066;52.106;5.534;2023-04-01T14:55:55;11.80;99.90
18297;DHT22;18066;52.106;5.534;2023-04-01T14:58:24;11.80;99.90
18297;DHT22;18066;52.106;5.534;2023-04-01T15:01:01;11.80;99.90
18297;DHT22;18066;52.106;5.534;2023-04-01T15:03:37;11.90;99.90
18297;DHT22;18066;52.106;5.534;2023-04-01T15:06:32;11.90;99.90
18297;DHT22;18066;52.106;5.534;2023-04-01T15:09:06;12.00;99.90
18297;DHT22;18066;52.106;5.534;2023-04-01T15:11:44;12.10;99.90
18297;DHT22;18066;52.106;5.534;2023-04-01T15:14:41;12.20;99.90
18297;DHT22;18066;52.106;5.534;2023-04-01T15:17:27;12.20;99.90
18297;DHT22;18066;52.106;5.534;2023-04-01T15:20:10;12.30;99.90
18297;DHT22;18066;52.106;5.534;2023-04-01T15:23:01;12.30;99.90
18297;DHT22;18066;52.106;5.534;2023-04-01T15:25:43;12.40;99.90
18297;DHT22;18066;52.106;5.534;2023-04-01T15:28:20;12.40;99.90
18297;DHT22;18066;52.106;5.534;2023-04-01T15:30:54;12.40;99.90
18297;DHT22;18066;52.106;5.534;2023-04-01T15:33:42;12.30;99.90
18297;DHT22;18066;52.106;5.534;2023-04-01T15:36:21;12.30;99.90
18297;DHT22;18066;52.106;5.534;2023-04-01T15:38:57;12.20;99.90
18297;DHT22;18066;52.106;5.534;2023-04-01T15:41:35;12.10;99.90
18297;DHT22;18066;52.106;5.534;2023-04-01T15:44:27;12.00;99.90
18297;DHT22;18066;52.106;5.534;2023-04-01T15:47:08;12.00;99.90
18297;DHT22;18066;52.106;5.534;2023-04-01T15:49:49;12.10;99.90
18297;DHT22;18066;52.106;5.534;2023-04-01T15:52:21;12.10;99.90
18297;DHT22;18066;52.106;5.534;2023-04-01T15:55:03;12.00;99.90
18297;DHT22;18066;52.106;5.534;2023-04-01T15:57:39;11.90;99.90
18297;DHT22;18066;52.106;5.534;2023-04-01T16:00:27;11.90;99.90
18297;DHT22;18066;52.106;5.534;2023-04-01T16:03:14;11.90;99.90
18297;DHT22;18066;52.106;5.534;2023-04-01T16:05:52;11.90;99.90
18297;DHT22;18066;52.106;5.534;2023-04-01T16:08:50;11.70;99.90
18297;DHT22;18066;52.106;5.534;2023-04-01T16:11:26;11.70;99.90
18297;DHT22;18066;52.106;5.534;2023-04-01T16:14:03;11.40;99.90
18297;DHT22;18066;52.106;5.534;2023-04-01T16:16:44;11.50;99.90
18297;DHT22;18066;52.106;5.534;2023-04-01T16:19:28;11.50;99.90
18297;DHT22;18066;52.106;5.534;2023-04-01T16:22:05;11.50;99.90
18297;DHT22;18066;52.106;5.534;2023-04-01T16:24:38;11.40;99.90
18297;DHT22;18066;52.106;5.534;2023-04-01T16:27:13;11.30;99.90
18297;DHT22;18066;52.106;5.534;2023-04-01T16:29:46;11.20;99.90
18297;DHT22;18066;52.106;5.534;2023-04-01T16:32:29;11.20;99.90
18297;DHT22;18066;52.106;5.534;2023-04-01T16:35:12;11.10;99.90
18297;DHT22;18066;52.106;5.534;2023-04-01T16:37:46;11.10;99.90
18297;DHT22;18066;52.106;5.534;2023-04-01T16:40:24;11.00;99.90
18297;DHT22;18066;52.106;5.534;2023-04-01T16:42:58;11.00;99.90
18297;DHT22;18066;52.106;5.534;2023-04-01T16:45:35;11.10;99.90
18297;DHT22;18066;52.106;5.534;2023-04-01T16:48:10;11.00;99.90
18297;DHT22;18066;52.106;5.534;2023-04-01T16:50:44;11.10;99.90
18297;DHT22;18066;52.106;5.534;2023-04-01T16:53:18;10.80;99.90
18297;DHT22;18066;52.106;5.534;2023-04-01T16:55:49;10.70;99.90
18297;DHT22;18066;52.106;5.534;2023-04-01T16:58:23;10.70;99.90
18297;DHT22;18066;52.106;5.534;2023-04-01T17:00:54;10.70;99.90
18297;DHT22;18066;52.106;5.534;2023-04-01T17:03:26;10.70;99.90
18297;DHT22;18066;52.106;5.534;2023-04-01T17:06:07;10.70;99.90
18297;DHT22;18066;52.106;5.534;2023-04-01T17:09:00;10.70;99.90
18297;DHT22;18066;52.106;5.534;2023-04-01T17:11:31;10.70;99.90
18297;DHT22;18066;52.106;5.534;2023-04-01T17:14:10;10.70;99.90
18297;DHT22;18066;52.106;5.534;2023-04-01T17:17:01;10.70;99.90
18297;DHT22;18066;52.106;5.534;2023-04-01T17:19:45;10.70;99.90
18297;DHT22;18066;52.106;5.534;2023-04-01T17:22:23;10.70;99.90
18297;DHT22;18066;52.106;5.534;2023-04-01T17:25:02;10.70;99.90